Reynolds, ND

11:46 AM CDT on May 28, 2015 (GMT -0500)
Climax | | Change Station
CLOSE
Current Station
Personal Weather Station
Location: Climax, MN
Elevation: 853 ft
Nearby Weather Stations

Elev 853 ft 47.61 °N, 96.81 °W | Updated 3 seconds ago

Rain
Rain
69.6 °F
Feels Like 69.6 °F
N
11.0
Wind Variable Wind from SSE
Gusts 15.0 mph

Today
High -- | Low -- °F
--% Chance of Precip.
Yesterday
High -- | Low -- °F
Precip. -- in
5:37 AM 9:14 PM
Waxing Gibbous, 77% visible
Pressure 29.87 in
Visibility 10.0 miles
Clouds Few 1000 ft
Mostly Cloudy 8500 ft
Mostly Cloudy 25000 ft
Dew Point 63 °F
Humidity 80%
Rainfall 0.18 in
Snow Depth Not available.
UV 4 out of 12
Pollen 6.10 out of 12
Air Quality Not available.
Flu Activity Sporadic
METAR KGFK 281553Z 15006KT 10SM FEW010 BKN085 BKN250 19/16 A2987 RMK AO2 SLP115 T01890156

More Conditions Fewer Conditions

Pressure 29.87 in
Visibility 10.0 miles
Clouds Few 1000 ft
Mostly Cloudy 8500 ft
Mostly Cloudy 25000 ft
Dew Point 63 °F
Humidity 80%
Rainfall 0.18 in
Snow Depth Not available.
UV 4 out of 12
Pollen 6.10 out of 12
Air Quality Not available.
Flu Activity Sporadic
METAR KGFK 281553Z 15006KT 10SM FEW010 BKN085 BKN250 19/16 A2987 RMK AO2 SLP115 T01890156

More Conditions Fewer Conditions

10-Day Weather Forecast

Almanac

Astronomy

May. 28, 2015 Rise Set
Actual Time
Civil Twilight
Nautical Twilight
Astronomical Twilight
Moon
Length of Visible Light
Length of Day
Tomorrow will be .
, % of the Moon is Illuminated

Today's Extremes

State Highs State Lows

Community

WunderPhotos

Upload Photos

1,825,004 photos uploaded!

WunderBlogs® & News

Nearby

Air Quality

  Air Quality AQ Index Pollutant
Not available.

Snow Depth

Station Depth Elevation

Earthquake Activity

City Distance Mag. Time & Date
Minimum magnitude displayed is 2.5.

Coastal Water Temperatures

Place Temperature

Stations

Nearby Weather Stations

Station Location Temp. Windchill Dew Point Humidity Wind Precip. Elev Updated Type